createdAt,value
2017-07-26T00:00:54.358Z,1.60
2017-07-26T00:03:21.861Z,1.50
2017-07-26T00:05:49.493Z,1.70
2017-07-26T00:08:17.000Z,1.50
2017-07-26T00:10:44.537Z,1.70
2017-07-26T00:13:12.019Z,1.67
2017-07-26T00:15:39.538Z,2.17
2017-07-26T00:18:07.821Z,1.50
2017-07-26T00:20:36.194Z,1.70
2017-07-26T00:23:04.496Z,1.47
2017-07-26T00:25:32.019Z,1.27
2017-07-26T00:27:59.527Z,1.70
2017-07-26T00:30:27.051Z,1.20
2017-07-26T00:32:55.329Z,1.53
2017-07-26T00:35:23.624Z,1.47
2017-07-26T00:37:51.129Z,1.60
2017-07-26T00:40:18.681Z,1.30
2017-07-26T00:42:46.196Z,1.60
2017-07-26T00:45:13.725Z,1.53
2017-07-26T00:47:43.014Z,1.50
2017-07-26T00:50:10.542Z,1.53
2017-07-26T00:52:38.073Z,1.50
2017-07-26T00:55:05.607Z,1.40
2017-07-26T00:57:33.887Z,1.33
2017-07-26T01:00:02.170Z,1.57
2017-07-26T01:02:29.741Z,1.50
2017-07-26T01:04:57.387Z,1.43
2017-07-26T01:07:24.910Z,1.30
2017-07-26T01:09:52.369Z,1.40
2017-07-26T01:12:19.905Z,1.30
2017-07-26T01:14:47.409Z,1.57
2017-07-26T01:17:15.670Z,1.30
2017-07-26T01:19:43.949Z,1.63
2017-07-26T01:22:12.219Z,1.60
2017-07-26T01:24:39.729Z,1.60
2017-07-26T01:27:07.234Z,1.47
2017-07-26T01:29:34.734Z,1.70
2017-07-26T01:32:02.270Z,1.17
2017-07-26T01:34:30.541Z,1.40
2017-07-26T01:36:58.813Z,1.50
2017-07-26T01:39:27.099Z,1.30
2017-07-26T01:41:55.369Z,1.50
2017-07-26T01:44:23.678Z,1.10
2017-07-26T01:46:51.519Z,1.20
2017-07-26T01:49:19.777Z,1.20
2017-07-26T01:51:48.149Z,1.80
2017-07-26T01:54:15.657Z,1.37
2017-07-26T01:56:43.161Z,1.57
2017-07-26T01:59:10.670Z,1.20
2017-07-26T02:01:38.230Z,1.67
2017-07-26T02:04:05.730Z,1.10
2017-07-26T02:06:33.370Z,1.33
2017-07-26T02:09:00.913Z,1.30
2017-07-26T02:11:28.389Z,1.53
2017-07-26T02:13:55.926Z,1.40
2017-07-26T02:16:23.526Z,1.37
2017-07-26T02:18:51.046Z,1.37
2017-07-26T02:21:18.542Z,1.17
2017-07-26T02:23:46.045Z,1.30
2017-07-26T02:26:13.568Z,1.60
2017-07-26T02:28:41.065Z,1.20
2017-07-26T02:31:08.591Z,1.40
2017-07-26T02:33:36.124Z,1.43
2017-07-26T02:36:03.654Z,1.10
2017-07-26T02:38:31.183Z,1.20
2017-07-26T02:40:58.689Z,1.13
2017-07-26T02:43:26.206Z,1.30
2017-07-26T02:45:53.691Z,1.23
2017-07-26T02:48:21.214Z,1.00
2017-07-26T02:50:48.713Z,1.40
2017-07-26T02:53:16.353Z,1.30
2017-07-26T02:55:43.877Z,1.20
2017-07-26T02:58:12.142Z,1.30
2017-07-26T03:00:40.446Z,1.17
2017-07-26T03:03:07.954Z,1.27
2017-07-26T03:05:35.442Z,1.00
2017-07-26T03:08:03.742Z,1.23
2017-07-26T03:10:31.247Z,1.60
2017-07-26T03:12:58.766Z,1.13
2017-07-26T03:15:26.269Z,1.43
2017-07-26T03:17:53.794Z,1.20
2017-07-26T03:20:21.350Z,1.30
2017-07-26T03:22:49.112Z,1.40
2017-07-26T03:25:16.631Z,1.13
2017-07-26T03:27:44.894Z,1.23
2017-07-26T03:30:12.458Z,1.23
2017-07-26T03:32:40.743Z,1.40
2017-07-26T03:35:09.026Z,1.30
2017-07-26T03:37:37.297Z,1.00
2017-07-26T03:40:04.798Z,1.30
2017-07-26T03:42:32.313Z,1.00
2017-07-26T03:45:00.118Z,1.10
2017-07-26T03:47:27.644Z,1.30
2017-07-26T03:49:55.162Z,1.40
2017-07-26T03:52:22.735Z,1.20
2017-07-26T03:54:50.259Z,1.20
2017-07-26T03:57:17.786Z,1.30
2017-07-26T03:59:45.281Z,1.27
2017-07-26T04:02:12.785Z,1.10
2017-07-26T04:04:41.082Z,1.00
2017-07-26T04:07:08.597Z,1.30
2017-07-26T04:09:36.099Z,1.20
2017-07-26T04:12:03.689Z,1.27
2017-07-26T04:14:31.181Z,1.23
2017-07-26T04:16:58.705Z,1.20
2017-07-26T04:19:26.298Z,1.10
2017-07-26T04:21:53.794Z,0.90
2017-07-26T04:24:21.370Z,1.57
2017-07-26T04:26:49.105Z,1.30
2017-07-26T04:29:16.628Z,1.00
2017-07-26T04:31:44.314Z,1.20
2017-07-26T04:34:11.834Z,1.13
2017-07-26T04:36:39.451Z,1.30
2017-07-26T04:39:06.951Z,1.30
2017-07-26T04:41:34.488Z,0.90
2017-07-26T04:44:01.973Z,1.40
2017-07-26T04:46:29.469Z,1.20
2017-07-26T04:48:57.749Z,1.50
2017-07-26T04:51:25.261Z,1.20
2017-07-26T04:53:52.765Z,1.07
2017-07-26T04:56:20.275Z,1.13
2017-07-26T04:58:47.794Z,1.27
2017-07-26T05:01:15.315Z,1.07
2017-07-26T05:03:43.078Z,1.20
2017-07-26T05:06:10.595Z,1.23
2017-07-26T05:08:38.110Z,1.30
2017-07-26T05:11:05.722Z,1.33
2017-07-26T05:13:33.236Z,1.00
2017-07-26T05:16:00.741Z,1.10
2017-07-26T05:18:28.262Z,1.20
2017-07-26T05:20:55.757Z,1.10
2017-07-26T05:23:23.278Z,1.17
2017-07-26T05:25:50.794Z,1.10
2017-07-26T05:28:18.302Z,1.40
2017-07-26T05:30:45.801Z,1.17
2017-07-26T05:33:13.326Z,1.20
2017-07-26T05:35:40.850Z,1.40
2017-07-26T05:38:09.363Z,1.60
2017-07-26T05:40:36.882Z,1.80
2017-07-26T05:43:04.410Z,1.80
2017-07-26T05:45:31.951Z,1.70
2017-07-26T05:47:59.509Z,1.57
2017-07-26T05:50:27.065Z,2.20
2017-07-26T05:52:54.717Z,1.90
2017-07-26T05:55:22.243Z,2.00
2017-07-26T05:57:50.522Z,2.00
2017-07-26T06:00:18.051Z,2.87
2017-07-26T06:02:45.549Z,2.30
2017-07-26T06:05:13.052Z,1.97
2017-07-26T06:07:40.578Z,2.30
2017-07-26T06:10:08.086Z,2.10
2017-07-26T06:12:35.845Z,2.47
2017-07-26T06:15:03.371Z,2.80
2017-07-26T06:17:30.867Z,2.43
2017-07-26T06:19:58.376Z,2.60
2017-07-26T06:22:25.873Z,3.03
2017-07-26T06:24:53.393Z,2.90
2017-07-26T06:27:20.923Z,2.57
2017-07-26T06:29:49.271Z,2.50
2017-07-26T06:32:16.774Z,2.30
2017-07-26T06:34:44.287Z,2.77
2017-07-26T06:37:11.844Z,2.13
2017-07-26T06:39:39.378Z,3.27
2017-07-26T06:42:06.883Z,2.60
2017-07-26T06:44:35.160Z,2.63
2017-07-26T06:47:03.466Z,2.47
2017-07-26T06:49:31.022Z,2.30
2017-07-26T06:51:58.525Z,2.30
2017-07-26T06:54:26.026Z,2.70
2017-07-26T06:56:53.541Z,2.90
2017-07-26T06:59:21.097Z,3.10
2017-07-26T07:01:48.612Z,3.00
2017-07-26T07:04:16.135Z,2.50
2017-07-26T07:06:43.651Z,3.13
2017-07-26T07:09:11.140Z,3.07
2017-07-26T07:11:38.650Z,3.07
2017-07-26T07:14:06.175Z,2.33
2017-07-26T07:16:34.430Z,2.97
2017-07-26T07:19:01.966Z,2.67
2017-07-26T07:21:29.486Z,2.40
2017-07-26T07:23:56.999Z,3.03
2017-07-26T07:26:25.302Z,2.53
2017-07-26T07:28:52.831Z,2.80
2017-07-26T07:31:21.235Z,2.93
2017-07-26T07:33:48.850Z,2.90
2017-07-26T07:36:16.395Z,2.63
2017-07-26T07:38:43.968Z,2.43
2017-07-26T07:41:11.471Z,2.50
2017-07-26T07:43:39.021Z,2.60
2017-07-26T07:46:06.546Z,2.77
2017-07-26T07:48:45.133Z,2.63
2017-07-26T07:51:12.654Z,2.50
2017-07-26T07:53:40.153Z,2.67
2017-07-26T07:56:07.670Z,2.30
2017-07-26T07:58:35.195Z,2.30
2017-07-26T08:01:02.698Z,2.10
2017-07-26T08:03:30.223Z,2.20
2017-07-26T08:05:58.494Z,2.57
2017-07-26T08:08:26.837Z,2.47
2017-07-26T08:10:54.392Z,2.77
2017-07-26T08:13:21.967Z,2.47
2017-07-26T08:15:49.491Z,2.50
2017-07-26T08:18:17.022Z,2.50
2017-07-26T08:20:45.346Z,2.40
2017-07-26T08:23:12.928Z,2.43
2017-07-26T08:25:40.525Z,2.20
2017-07-26T08:28:08.033Z,2.60
2017-07-26T08:30:35.551Z,2.40
2017-07-26T08:33:03.041Z,2.40
2017-07-26T08:35:30.553Z,2.10
2017-07-26T08:37:58.082Z,2.10
2017-07-26T08:40:25.630Z,1.90
2017-07-26T08:42:53.173Z,2.03
2017-07-26T08:45:20.695Z,1.77
2017-07-26T08:47:48.225Z,2.73
2017-07-26T08:50:16.500Z,2.20
2017-07-26T08:52:44.766Z,1.70
2017-07-26T08:55:12.295Z,1.97
2017-07-26T08:57:39.784Z,1.90
2017-07-26T09:00:08.089Z,1.97
2017-07-26T09:02:35.639Z,2.93
2017-07-26T09:05:03.975Z,2.40
2017-07-26T09:07:31.470Z,2.27
2017-07-26T09:09:59.795Z,2.70
2017-07-26T09:12:27.290Z,2.43
2017-07-26T09:14:54.832Z,2.47
2017-07-26T09:17:22.425Z,2.50
2017-07-26T09:19:50.710Z,2.20
2017-07-26T09:22:18.222Z,2.80
2017-07-26T09:24:46.900Z,2.33
2017-07-26T09:27:16.642Z,2.27
2017-07-26T09:29:44.981Z,2.50
2017-07-26T09:32:12.846Z,2.30
2017-07-26T09:34:40.498Z,2.50
2017-07-26T09:37:08.146Z,2.37
2017-07-26T09:39:36.247Z,2.70
2017-07-26T09:42:03.983Z,2.40
2017-07-26T09:44:31.555Z,2.20
2017-07-26T09:46:59.205Z,2.60
2017-07-26T09:49:26.760Z,2.43
2017-07-26T09:51:54.410Z,2.30
2017-07-26T09:54:21.930Z,2.70
2017-07-26T09:56:49.429Z,2.23
2017-07-26T09:59:17.047Z,2.57
2017-07-26T10:01:45.342Z,2.80
2017-07-26T10:04:13.634Z,1.93
2017-07-26T10:06:41.905Z,2.10
2017-07-26T10:09:10.181Z,2.60
2017-07-26T10:11:38.498Z,2.20
2017-07-26T10:14:06.013Z,2.80
2017-07-26T10:16:33.538Z,2.13
2017-07-26T10:19:01.083Z,2.10
2017-07-26T10:21:28.585Z,2.10
2017-07-26T10:23:56.995Z,1.90
2017-07-26T10:26:24.536Z,2.30
2017-07-26T10:28:52.130Z,2.30
2017-07-26T10:31:19.702Z,2.40
2017-07-26T10:33:47.256Z,2.10
2017-07-26T10:36:14.854Z,1.90
2017-07-26T10:38:43.163Z,2.20
2017-07-26T10:41:10.701Z,2.50
2017-07-26T10:43:38.970Z,2.70
2017-07-26T10:46:06.504Z,2.33
2017-07-26T10:48:34.049Z,2.13
2017-07-26T10:51:01.585Z,2.50
2017-07-26T10:53:29.120Z,2.50
2017-07-26T10:55:56.630Z,2.50
2017-07-26T10:58:24.134Z,2.53
2017-07-26T11:00:51.710Z,2.60
2017-07-26T11:03:19.248Z,2.27
2017-07-26T11:05:46.744Z,2.50
2017-07-26T11:08:14.269Z,2.30
2017-07-26T11:10:41.777Z,2.50
2017-07-26T11:13:09.327Z,2.50
2017-07-26T11:15:36.829Z,2.43
2017-07-26T11:18:05.085Z,2.30
2017-07-26T11:20:33.462Z,2.00
2017-07-26T11:23:01.758Z,2.40
2017-07-26T11:25:29.280Z,2.40
2017-07-26T11:27:56.838Z,2.47
2017-07-26T11:30:24.510Z,2.23
2017-07-26T11:32:52.015Z,2.70
2017-07-26T11:35:19.524Z,2.40
2017-07-26T11:37:47.058Z,2.20
2017-07-26T11:40:14.651Z,2.40
2017-07-26T11:42:42.198Z,2.47
2017-07-26T11:45:09.705Z,2.60
2017-07-26T11:47:37.221Z,2.40
2017-07-26T11:50:04.767Z,2.70
2017-07-26T11:52:32.322Z,2.33
2017-07-26T11:54:59.834Z,2.10
2017-07-26T11:57:27.396Z,2.20
2017-07-26T11:59:54.934Z,2.30
2017-07-26T12:02:23.208Z,2.40
2017-07-26T12:04:51.565Z,2.13
2017-07-26T12:07:19.098Z,3.10
2017-07-26T12:09:46.615Z,2.40
2017-07-26T12:12:14.139Z,2.47
2017-07-26T12:14:41.718Z,2.60
2017-07-26T12:17:10.004Z,2.43
2017-07-26T12:19:38.297Z,2.20
2017-07-26T12:22:05.832Z,2.47
2017-07-26T12:24:34.110Z,2.30
2017-07-26T12:27:01.617Z,2.50
2017-07-26T12:29:29.140Z,2.37
2017-07-26T12:31:56.626Z,2.33
2017-07-26T12:34:24.139Z,2.30
2017-07-26T12:36:52.418Z,2.20
2017-07-26T12:39:20.823Z,2.60
2017-07-26T12:41:48.347Z,2.43
2017-07-26T12:44:16.618Z,2.47
2017-07-26T12:46:44.963Z,2.30
2017-07-26T12:49:12.459Z,2.60
2017-07-26T12:51:39.997Z,2.80
2017-07-26T12:54:07.547Z,2.90
2017-07-26T12:56:35.113Z,2.87
2017-07-26T12:59:03.599Z,2.70
2017-07-26T13:01:31.171Z,2.57
2017-07-26T13:03:58.720Z,3.10
2017-07-26T13:06:26.262Z,2.97
2017-07-26T13:08:53.800Z,2.90
2017-07-26T13:11:21.318Z,2.70
2017-07-26T13:13:48.866Z,3.07
2017-07-26T13:16:17.163Z,2.70
2017-07-26T13:18:44.679Z,2.87
2017-07-26T13:21:13.703Z,3.10
2017-07-26T13:23:41.258Z,2.63
2017-07-26T13:26:08.818Z,3.10
2017-07-26T13:28:36.378Z,2.78
2017-07-26T13:31:03.902Z,2.80
2017-07-26T13:33:32.270Z,2.97
2017-07-26T13:35:59.798Z,3.20
2017-07-26T13:38:27.321Z,2.90
2017-07-26T13:40:54.868Z,2.97
2017-07-26T13:43:22.396Z,2.80
2017-07-26T13:45:49.914Z,3.10
2017-07-26T13:48:17.424Z,3.10
2017-07-26T13:50:44.986Z,2.83
2017-07-26T13:53:13.291Z,3.20
2017-07-26T13:55:40.832Z,3.07
2017-07-26T13:58:09.268Z,2.77
2017-07-26T14:00:36.830Z,2.77
2017-07-26T14:03:04.388Z,3.17
2017-07-26T14:05:31.921Z,2.93
2017-07-26T14:07:59.508Z,2.93
2017-07-26T14:10:27.096Z,3.10
2017-07-26T14:12:54.625Z,2.63
2017-07-26T14:15:22.117Z,3.10
2017-07-26T14:17:49.719Z,3.27
2017-07-26T14:20:17.335Z,3.17
2017-07-26T14:22:44.926Z,3.30
2017-07-26T14:25:12.514Z,2.80
2017-07-26T14:27:40.126Z,3.03
2017-07-26T14:30:07.679Z,3.50
2017-07-26T14:32:35.223Z,3.00
2017-07-26T14:35:03.499Z,2.60
2017-07-26T14:37:31.145Z,2.57
2017-07-26T14:39:59.434Z,2.67
2017-07-26T14:42:26.933Z,2.47
2017-07-26T14:44:54.442Z,2.90
2017-07-26T14:47:22.728Z,2.60
2017-07-26T14:49:50.336Z,3.10
2017-07-26T14:52:17.910Z,2.60
2017-07-26T14:54:45.470Z,2.50
2017-07-26T14:57:13.131Z,2.30
2017-07-26T14:59:40.689Z,2.53
2017-07-26T15:02:08.254Z,2.13
2017-07-26T15:04:35.913Z,3.03
2017-07-26T15:07:03.509Z,2.60
2017-07-26T15:09:31.850Z,2.63
2017-07-26T15:11:59.363Z,2.23
2017-07-26T15:14:26.927Z,2.30
2017-07-26T15:16:54.443Z,2.47
2017-07-26T15:19:21.946Z,2.87
2017-07-26T15:21:49.534Z,2.33
2017-07-26T15:24:17.087Z,2.57
2017-07-26T15:26:44.605Z,2.03
2017-07-26T15:29:12.862Z,2.20
2017-07-26T15:31:41.198Z,2.57
2017-07-26T15:34:08.727Z,2.20
2017-07-26T15:36:36.258Z,2.70
2017-07-26T15:39:04.540Z,2.47
2017-07-26T15:41:32.810Z,3.07
2017-07-26T15:44:01.096Z,2.97
2017-07-26T15:46:29.418Z,3.00
2017-07-26T15:48:56.955Z,2.90
2017-07-26T15:51:24.463Z,3.40
2017-07-26T15:53:51.996Z,3.40
2017-07-26T15:56:19.532Z,3.67
2017-07-26T15:58:47.082Z,3.50
2017-07-26T16:01:14.639Z,3.30
2017-07-26T16:03:42.301Z,3.30
2017-07-26T16:06:09.955Z,3.60
2017-07-26T16:08:37.444Z,3.60
2017-07-26T16:11:04.981Z,2.90
2017-07-26T16:13:32.518Z,3.97
2017-07-26T16:16:00.025Z,3.63
2017-07-26T16:18:27.538Z,3.90
2017-07-26T16:20:55.112Z,3.43
2017-07-26T16:23:22.679Z,3.87
2017-07-26T16:25:50.281Z,3.90
2017-07-26T16:28:17.811Z,3.90
2017-07-26T16:30:45.347Z,4.53
2017-07-26T16:33:12.877Z,4.07
2017-07-26T16:35:41.343Z,4.17
2017-07-26T16:38:09.703Z,4.10
2017-07-26T16:40:37.328Z,4.30
2017-07-26T16:43:04.854Z,4.00
2017-07-26T16:45:33.131Z,3.90
2017-07-26T16:48:00.696Z,4.40
2017-07-26T16:50:28.233Z,3.70
2017-07-26T16:52:56.548Z,4.10
2017-07-26T16:55:24.234Z,4.40
2017-07-26T16:57:51.819Z,3.60
2017-07-26T17:00:19.379Z,4.17
2017-07-26T17:02:47.665Z,3.87
2017-07-26T17:05:16.004Z,4.70
2017-07-26T17:07:43.528Z,3.50
2017-07-26T17:10:11.067Z,3.57
2017-07-26T17:12:39.355Z,3.50
2017-07-26T17:15:06.901Z,3.93
2017-07-26T17:17:35.183Z,3.53
2017-07-26T17:20:02.750Z,4.23
2017-07-26T17:22:30.278Z,4.10
2017-07-26T17:24:57.801Z,3.90
2017-07-26T17:27:25.310Z,3.80
2017-07-26T17:29:52.870Z,3.70
2017-07-26T17:32:21.247Z,3.57
2017-07-26T17:34:49.490Z,3.07
2017-07-26T17:37:17.013Z,3.60
2017-07-26T17:39:44.575Z,3.80
2017-07-26T17:42:12.108Z,3.37
2017-07-26T17:44:39.686Z,3.60
2017-07-26T17:47:07.380Z,3.70
2017-07-26T17:49:34.903Z,3.67
2017-07-26T17:52:02.431Z,3.37
2017-07-26T17:54:30.738Z,4.10
2017-07-26T17:56:58.269Z,3.73
2017-07-26T17:59:26.579Z,3.93
2017-07-26T18:01:54.127Z,3.30
2017-07-26T18:04:21.669Z,3.37
2017-07-26T18:06:49.225Z,3.70
2017-07-26T18:09:17.510Z,3.63
2017-07-26T18:11:45.058Z,3.67
2017-07-26T18:14:13.362Z,3.43
2017-07-26T18:16:40.893Z,3.50
2017-07-26T18:19:09.201Z,3.60
2017-07-26T18:21:36.788Z,4.00
2017-07-26T18:24:04.432Z,3.70
2017-07-26T18:26:32.104Z,3.90
2017-07-26T18:28:59.666Z,3.40
2017-07-26T18:31:27.225Z,3.50
2017-07-26T18:33:54.759Z,3.47
2017-07-26T18:36:22.400Z,4.13
2017-07-26T18:38:50.661Z,3.37
2017-07-26T18:41:18.984Z,3.90
2017-07-26T18:43:46.488Z,3.60
2017-07-26T18:46:14.793Z,3.40
2017-07-26T18:48:42.353Z,3.10
2017-07-26T18:51:09.886Z,3.50
2017-07-26T18:53:38.514Z,3.70
2017-07-26T18:56:06.049Z,3.47
2017-07-26T18:58:33.599Z,3.37
2017-07-26T19:01:01.133Z,3.40
2017-07-26T19:03:28.763Z,3.93
2017-07-26T19:05:56.317Z,3.50
2017-07-26T19:08:23.923Z,3.63
2017-07-26T19:10:52.245Z,3.20
2017-07-26T19:13:19.873Z,3.80
2017-07-26T19:15:47.451Z,3.77
2017-07-26T19:18:15.016Z,3.23
2017-07-26T19:20:42.626Z,3.27
2017-07-26T19:23:10.191Z,3.33
2017-07-26T19:25:37.707Z,3.33
2017-07-26T19:28:05.234Z,3.40
2017-07-26T19:30:32.774Z,3.50
2017-07-26T19:33:01.084Z,2.70
2017-07-26T19:35:28.615Z,3.93
2017-07-26T19:37:56.903Z,3.63
2017-07-26T19:40:24.539Z,3.80
2017-07-26T19:42:52.101Z,3.07
2017-07-26T19:48:12.896Z,3.63
2017-07-26T19:50:40.450Z,3.30
2017-07-26T19:53:07.978Z,2.90
2017-07-26T19:55:35.550Z,3.20
2017-07-26T19:58:03.076Z,3.67
2017-07-26T20:00:31.342Z,3.17
2017-07-26T20:02:58.890Z,3.47
2017-07-26T20:05:27.142Z,3.00
2017-07-26T20:07:54.843Z,2.73
2017-07-26T20:10:23.179Z,2.70
2017-07-26T20:12:50.751Z,3.37
2017-07-26T20:15:18.318Z,3.03
2017-07-26T20:17:45.872Z,3.23
2017-07-26T20:20:13.386Z,2.60
2017-07-26T20:22:40.944Z,3.13
2017-07-26T20:25:08.513Z,2.83
2017-07-26T20:27:36.105Z,3.03
2017-07-26T20:30:03.660Z,2.80
2017-07-26T20:32:31.364Z,3.23
2017-07-26T20:34:58.871Z,3.10
2017-07-26T20:37:26.398Z,2.93
2017-07-26T20:39:53.971Z,3.00
2017-07-26T20:42:21.561Z,2.57
2017-07-26T20:44:49.099Z,2.80
2017-07-26T20:47:16.633Z,2.60
2017-07-26T20:49:44.158Z,2.90
2017-07-26T20:52:12.451Z,2.90
2017-07-26T20:54:40.026Z,2.80
2017-07-26T20:57:07.602Z,3.37
2017-07-26T20:59:35.106Z,2.80
2017-07-26T21:02:03.482Z,3.00
2017-07-26T21:04:31.122Z,3.17
2017-07-26T21:06:58.654Z,3.03
2017-07-26T21:09:26.204Z,2.60
2017-07-26T21:11:53.876Z,2.93
2017-07-26T21:14:21.395Z,2.70
2017-07-26T21:16:49.083Z,3.00
2017-07-26T21:19:16.588Z,2.90
2017-07-26T21:21:44.199Z,2.90
2017-07-26T21:24:11.862Z,2.83
2017-07-26T21:26:39.440Z,2.93
2017-07-26T21:29:06.950Z,2.70
2017-07-26T21:31:35.308Z,2.77
2017-07-26T21:34:02.864Z,2.60
2017-07-26T21:36:30.400Z,2.80
2017-07-26T21:38:57.877Z,3.00
2017-07-26T21:41:25.388Z,2.80
2017-07-26T21:43:52.898Z,2.43
2017-07-26T21:46:20.445Z,2.67
2017-07-26T21:48:48.168Z,2.80
2017-07-26T21:51:15.739Z,2.70
2017-07-26T21:53:43.298Z,2.70
2017-07-26T21:56:10.825Z,2.87
2017-07-26T21:58:38.326Z,2.57
2017-07-26T22:01:05.861Z,2.37
2017-07-26T22:03:33.370Z,2.60
2017-07-26T22:06:00.979Z,2.90
2017-07-26T22:08:28.607Z,2.53
2017-07-26T22:10:56.890Z,2.30
2017-07-26T22:13:24.443Z,2.67
2017-07-26T22:15:52.727Z,2.57
2017-07-26T22:18:21.010Z,2.93
2017-07-26T22:20:48.506Z,2.53
2017-07-26T22:23:16.071Z,2.60
2017-07-26T22:25:43.562Z,2.77
2017-07-26T22:28:11.843Z,2.50
2017-07-26T22:30:40.125Z,2.37
2017-07-26T22:33:08.389Z,2.30
2017-07-26T22:35:36.814Z,2.70
2017-07-26T22:38:04.330Z,2.40
2017-07-26T22:40:32.607Z,2.60
2017-07-26T22:43:00.935Z,2.80
2017-07-26T22:45:28.452Z,2.50
2017-07-26T22:47:56.747Z,2.60
2017-07-26T22:50:24.260Z,2.73
2017-07-26T22:52:51.803Z,2.70
2017-07-26T22:55:19.346Z,2.30
2017-07-26T22:57:46.922Z,2.90
2017-07-26T23:00:14.470Z,2.50
2017-07-26T23:02:42.097Z,2.70
2017-07-26T23:05:09.618Z,2.57
2017-07-26T23:07:37.885Z,2.10
2017-07-26T23:10:05.420Z,2.50
2017-07-26T23:12:33.110Z,2.40
2017-07-26T23:15:00.658Z,2.40
2017-07-26T23:17:28.168Z,2.10
2017-07-26T23:19:56.366Z,2.67
2017-07-26T23:22:23.863Z,2.53
2017-07-26T23:24:52.172Z,2.17
2017-07-26T23:27:19.695Z,2.40
2017-07-26T23:29:47.200Z,2.60
2017-07-26T23:32:14.816Z,2.50
2017-07-26T23:34:42.329Z,2.50
2017-07-26T23:37:09.841Z,1.90
2017-07-26T23:39:38.181Z,2.47
2017-07-26T23:42:05.678Z,2.30
2017-07-26T23:44:33.949Z,2.57
2017-07-26T23:47:02.246Z,2.10
2017-07-26T23:49:29.763Z,2.60
2017-07-26T23:51:57.367Z,2.37
2017-07-26T23:54:24.887Z,2.60
2017-07-26T23:56:52.390Z,2.10
2017-07-26T23:59:19.923Z,2.47
